sensor_id;sensor_type;location;lat;lon;timestamp;P1;durP1;ratioP1;P2;durP2;ratioP2
8596;SDS011;4336;49.310;8.646;2023-09-12T00:01:09;20.17;;;9.70;;
8596;SDS011;4336;49.310;8.646;2023-09-12T00:03:35;14.50;;;8.90;;
8596;SDS011;4336;49.310;8.646;2023-09-12T00:06:01;29.57;;;9.60;;
8596;SDS011;4336;49.310;8.646;2023-09-12T00:08:28;21.20;;;10.17;;
8596;SDS011;4336;49.310;8.646;2023-09-12T00:11:00;17.13;;;9.80;;
8596;SDS011;4336;49.310;8.646;2023-09-12T00:13:31;21.43;;;9.97;;
8596;SDS011;4336;49.310;8.646;2023-09-12T00:15:57;15.50;;;9.40;;
8596;SDS011;4336;49.310;8.646;2023-09-12T00:18:23;21.63;;;10.27;;
8596;SDS011;4336;49.310;8.646;2023-09-12T00:20:50;19.07;;;9.10;;
8596;SDS011;4336;49.310;8.646;2023-09-12T00:23:16;20.50;;;10.07;;
8596;SDS011;4336;49.310;8.646;2023-09-12T00:25:42;18.47;;;8.97;;
8596;SDS011;4336;49.310;8.646;2023-09-12T00:28:08;17.60;;;9.03;;
8596;SDS011;4336;49.310;8.646;2023-09-12T00:30:34;18.33;;;10.00;;
8596;SDS011;4336;49.310;8.646;2023-09-12T00:33:00;16.30;;;9.33;;
8596;SDS011;4336;49.310;8.646;2023-09-12T00:35:26;17.67;;;9.67;;
8596;SDS011;4336;49.310;8.646;2023-09-12T00:37:51;22.90;;;10.83;;
8596;SDS011;4336;49.310;8.646;2023-09-12T00:40:17;13.77;;;8.30;;
8596;SDS011;4336;49.310;8.646;2023-09-12T00:42:43;19.07;;;9.20;;
8596;SDS011;4336;49.310;8.646;2023-09-12T00:45:09;16.30;;;9.37;;
8596;SDS011;4336;49.310;8.646;2023-09-12T00:47:35;21.17;;;9.63;;
8596;SDS011;4336;49.310;8.646;2023-09-12T00:50:01;19.83;;;10.53;;
8596;SDS011;4336;49.310;8.646;2023-09-12T00:52:28;20.50;;;10.30;;
8596;SDS011;4336;49.310;8.646;2023-09-12T00:54:54;15.00;;;8.80;;
8596;SDS011;4336;49.310;8.646;2023-09-12T00:57:21;20.70;;;9.63;;
8596;SDS011;4336;49.310;8.646;2023-09-12T00:59:49;13.57;;;9.03;;
8596;SDS011;4336;49.310;8.646;2023-09-12T01:02:18;20.03;;;8.83;;
8596;SDS011;4336;49.310;8.646;2023-09-12T01:04:44;17.57;;;9.87;;
8596;SDS011;4336;49.310;8.646;2023-09-12T01:07:10;15.83;;;9.40;;
8596;SDS011;4336;49.310;8.646;2023-09-12T01:09:36;16.83;;;8.97;;
8596;SDS011;4336;49.310;8.646;2023-09-12T01:12:02;16.10;;;9.53;;
8596;SDS011;4336;49.310;8.646;2023-09-12T01:14:28;15.00;;;10.07;;
8596;SDS011;4336;49.310;8.646;2023-09-12T01:16:55;16.47;;;9.40;;
8596;SDS011;4336;49.310;8.646;2023-09-12T01:19:21;15.43;;;9.43;;
8596;SDS011;4336;49.310;8.646;2023-09-12T01:22:10;16.73;;;10.00;;
8596;SDS011;4336;49.310;8.646;2023-09-12T01:27:38;15.67;;;9.80;;
8596;SDS011;4336;49.310;8.646;2023-09-12T01:30:08;18.53;;;9.77;;
8596;SDS011;4336;49.310;8.646;2023-09-12T01:32:36;18.97;;;9.23;;
8596;SDS011;4336;49.310;8.646;2023-09-12T01:35:03;17.13;;;10.07;;
8596;SDS011;4336;49.310;8.646;2023-09-12T01:37:29;18.23;;;9.80;;
8596;SDS011;4336;49.310;8.646;2023-09-12T01:39:55;17.73;;;8.83;;
8596;SDS011;4336;49.310;8.646;2023-09-12T01:42:21;14.67;;;9.53;;
8596;SDS011;4336;49.310;8.646;2023-09-12T01:44:49;18.27;;;8.83;;
8596;SDS011;4336;49.310;8.646;2023-09-12T01:47:16;18.73;;;10.40;;
8596;SDS011;4336;49.310;8.646;2023-09-12T01:49:44;15.67;;;9.40;;
8596;SDS011;4336;49.310;8.646;2023-09-12T01:52:11;13.53;;;7.50;;
8596;SDS011;4336;49.310;8.646;2023-09-12T01:54:38;18.80;;;9.83;;
8596;SDS011;4336;49.310;8.646;2023-09-12T01:57:04;14.47;;;10.47;;
8596;SDS011;4336;49.310;8.646;2023-09-12T01:59:30;16.10;;;10.40;;
8596;SDS011;4336;49.310;8.646;2023-09-12T02:01:57;15.57;;;8.37;;
8596;SDS011;4336;49.310;8.646;2023-09-12T02:04:24;17.60;;;8.90;;
8596;SDS011;4336;49.310;8.646;2023-09-12T02:06:49;15.37;;;8.87;;
8596;SDS011;4336;49.310;8.646;2023-09-12T02:09:15;21.27;;;10.50;;
8596;SDS011;4336;49.310;8.646;2023-09-12T02:11:41;22.20;;;10.80;;
8596;SDS011;4336;49.310;8.646;2023-09-12T02:14:06;22.53;;;10.40;;
8596;SDS011;4336;49.310;8.646;2023-09-12T02:16:35;14.70;;;9.93;;
8596;SDS011;4336;49.310;8.646;2023-09-12T02:19:02;15.73;;;9.50;;
8596;SDS011;4336;49.310;8.646;2023-09-12T02:21:28;14.87;;;9.87;;
8596;SDS011;4336;49.310;8.646;2023-09-12T02:23:55;14.57;;;8.70;;
8596;SDS011;4336;49.310;8.646;2023-09-12T02:26:21;15.47;;;9.77;;
8596;SDS011;4336;49.310;8.646;2023-09-12T02:28:47;16.63;;;10.33;;
8596;SDS011;4336;49.310;8.646;2023-09-12T02:31:12;14.43;;;8.90;;
8596;SDS011;4336;49.310;8.646;2023-09-12T02:33:38;14.90;;;9.70;;
8596;SDS011;4336;49.310;8.646;2023-09-12T02:36:05;18.13;;;7.63;;
8596;SDS011;4336;49.310;8.646;2023-09-12T02:38:31;18.87;;;10.40;;
8596;SDS011;4336;49.310;8.646;2023-09-12T02:40:57;17.77;;;9.93;;
8596;SDS011;4336;49.310;8.646;2023-09-12T02:43:23;16.43;;;9.87;;
8596;SDS011;4336;49.310;8.646;2023-09-12T02:45:49;21.53;;;10.17;;
8596;SDS011;4336;49.310;8.646;2023-09-12T02:48:15;30.10;;;10.30;;
8596;SDS011;4336;49.310;8.646;2023-09-12T02:50:41;21.93;;;9.73;;
8596;SDS011;4336;49.310;8.646;2023-09-12T02:53:07;24.03;;;10.27;;
8596;SDS011;4336;49.310;8.646;2023-09-12T02:55:32;18.67;;;7.80;;
8596;SDS011;4336;49.310;8.646;2023-09-12T02:57:58;21.13;;;10.20;;
8596;SDS011;4336;49.310;8.646;2023-09-12T03:00:24;17.13;;;9.43;;
8596;SDS011;4336;49.310;8.646;2023-09-12T03:02:50;14.87;;;8.93;;
8596;SDS011;4336;49.310;8.646;2023-09-12T03:05:16;21.87;;;10.07;;
8596;SDS011;4336;49.310;8.646;2023-09-12T03:07:41;19.37;;;8.53;;
8596;SDS011;4336;49.310;8.646;2023-09-12T03:10:07;21.40;;;8.97;;
8596;SDS011;4336;49.310;8.646;2023-09-12T03:12:35;19.73;;;9.73;;
8596;SDS011;4336;49.310;8.646;2023-09-12T03:15:02;19.93;;;9.83;;
8596;SDS011;4336;49.310;8.646;2023-09-12T03:17:28;17.47;;;10.10;;
8596;SDS011;4336;49.310;8.646;2023-09-12T03:19:54;18.03;;;9.77;;
8596;SDS011;4336;49.310;8.646;2023-09-12T03:22:20;22.13;;;9.33;;
8596;SDS011;4336;49.310;8.646;2023-09-12T03:24:46;18.63;;;8.80;;
8596;SDS011;4336;49.310;8.646;2023-09-12T03:27:12;17.20;;;10.17;;
8596;SDS011;4336;49.310;8.646;2023-09-12T03:29:38;16.20;;;9.60;;
8596;SDS011;4336;49.310;8.646;2023-09-12T03:32:04;17.03;;;9.60;;
8596;SDS011;4336;49.310;8.646;2023-09-12T03:34:30;20.57;;;7.53;;
8596;SDS011;4336;49.310;8.646;2023-09-12T03:36:56;18.30;;;9.70;;
8596;SDS011;4336;49.310;8.646;2023-09-12T03:39:22;20.50;;;9.30;;
8596;SDS011;4336;49.310;8.646;2023-09-12T03:41:48;12.80;;;8.63;;
8596;SDS011;4336;49.310;8.646;2023-09-12T03:44:13;11.87;;;8.00;;
8596;SDS011;4336;49.310;8.646;2023-09-12T03:46:39;18.20;;;9.23;;
8596;SDS011;4336;49.310;8.646;2023-09-12T03:49:05;21.60;;;9.17;;
8596;SDS011;4336;49.310;8.646;2023-09-12T03:51:31;24.57;;;9.33;;
8596;SDS011;4336;49.310;8.646;2023-09-12T03:53:56;17.07;;;7.70;;
8596;SDS011;4336;49.310;8.646;2023-09-12T03:56:23;19.97;;;9.33;;
8596;SDS011;4336;49.310;8.646;2023-09-12T03:58:49;20.30;;;9.47;;
8596;SDS011;4336;49.310;8.646;2023-09-12T04:01:15;19.23;;;9.13;;
8596;SDS011;4336;49.310;8.646;2023-09-12T04:03:41;21.07;;;9.50;;
8596;SDS011;4336;49.310;8.646;2023-09-12T04:06:06;17.57;;;9.07;;
8596;SDS011;4336;49.310;8.646;2023-09-12T04:08:32;26.37;;;10.03;;
8596;SDS011;4336;49.310;8.646;2023-09-12T04:10:58;16.17;;;9.83;;
8596;SDS011;4336;49.310;8.646;2023-09-12T04:13:24;21.10;;;9.80;;
8596;SDS011;4336;49.310;8.646;2023-09-12T04:15:50;20.50;;;9.73;;
8596;SDS011;4336;49.310;8.646;2023-09-12T04:18:16;13.67;;;10.07;;
8596;SDS011;4336;49.310;8.646;2023-09-12T04:20:42;19.17;;;9.73;;
8596;SDS011;4336;49.310;8.646;2023-09-12T04:23:07;22.37;;;9.20;;
8596;SDS011;4336;49.310;8.646;2023-09-12T04:25:33;20.17;;;9.33;;
8596;SDS011;4336;49.310;8.646;2023-09-12T04:27:59;17.90;;;10.17;;
8596;SDS011;4336;49.310;8.646;2023-09-12T04:30:25;18.07;;;9.97;;
8596;SDS011;4336;49.310;8.646;2023-09-12T04:32:52;19.57;;;10.40;;
8596;SDS011;4336;49.310;8.646;2023-09-12T04:35:18;17.43;;;9.07;;
8596;SDS011;4336;49.310;8.646;2023-09-12T04:37:46;15.50;;;9.40;;
8596;SDS011;4336;49.310;8.646;2023-09-12T04:40:13;19.17;;;9.40;;
8596;SDS011;4336;49.310;8.646;2023-09-12T04:42:40;18.47;;;9.83;;
8596;SDS011;4336;49.310;8.646;2023-09-12T04:45:06;22.93;;;9.27;;
8596;SDS011;4336;49.310;8.646;2023-09-12T04:47:32;17.50;;;9.00;;
8596;SDS011;4336;49.310;8.646;2023-09-12T04:49:59;19.80;;;10.40;;
8596;SDS011;4336;49.310;8.646;2023-09-12T04:52:26;23.97;;;10.03;;
8596;SDS011;4336;49.310;8.646;2023-09-12T04:54:52;17.87;;;9.53;;
8596;SDS011;4336;49.310;8.646;2023-09-12T04:57:18;18.47;;;9.10;;
8596;SDS011;4336;49.310;8.646;2023-09-12T04:59:43;22.17;;;10.27;;
8596;SDS011;4336;49.310;8.646;2023-09-12T05:02:09;16.43;;;10.13;;
8596;SDS011;4336;49.310;8.646;2023-09-12T05:04:37;17.83;;;9.73;;
8596;SDS011;4336;49.310;8.646;2023-09-12T05:07:02;13.27;;;8.50;;
8596;SDS011;4336;49.310;8.646;2023-09-12T05:09:28;18.53;;;9.60;;
8596;SDS011;4336;49.310;8.646;2023-09-12T05:11:54;23.37;;;10.53;;
8596;SDS011;4336;49.310;8.646;2023-09-12T05:14:20;21.47;;;10.77;;
8596;SDS011;4336;49.310;8.646;2023-09-12T05:16:46;19.70;;;11.30;;
8596;SDS011;4336;49.310;8.646;2023-09-12T05:19:12;20.70;;;9.43;;
8596;SDS011;4336;49.310;8.646;2023-09-12T05:21:38;20.87;;;9.83;;
8596;SDS011;4336;49.310;8.646;2023-09-12T05:24:04;14.53;;;10.53;;
8596;SDS011;4336;49.310;8.646;2023-09-12T05:26:30;18.27;;;11.40;;
8596;SDS011;4336;49.310;8.646;2023-09-12T05:28:56;19.90;;;11.37;;
8596;SDS011;4336;49.310;8.646;2023-09-12T05:31:22;18.00;;;10.80;;
8596;SDS011;4336;49.310;8.646;2023-09-12T05:33:48;18.07;;;10.73;;
8596;SDS011;4336;49.310;8.646;2023-09-12T05:36:14;19.23;;;10.90;;
8596;SDS011;4336;49.310;8.646;2023-09-12T05:38:40;27.97;;;10.93;;
8596;SDS011;4336;49.310;8.646;2023-09-12T05:41:06;23.80;;;10.67;;
8596;SDS011;4336;49.310;8.646;2023-09-12T05:43:32;16.60;;;10.77;;
8596;SDS011;4336;49.310;8.646;2023-09-12T05:45:57;19.83;;;11.57;;
8596;SDS011;4336;49.310;8.646;2023-09-12T05:48:24;17.97;;;10.20;;
8596;SDS011;4336;49.310;8.646;2023-09-12T05:50:50;21.87;;;10.10;;
8596;SDS011;4336;49.310;8.646;2023-09-12T05:53:16;19.10;;;11.17;;
8596;SDS011;4336;49.310;8.646;2023-09-12T05:55:41;25.30;;;10.83;;
8596;SDS011;4336;49.310;8.646;2023-09-12T05:58:08;26.80;;;10.47;;
8596;SDS011;4336;49.310;8.646;2023-09-12T06:00:34;21.17;;;11.57;;
8596;SDS011;4336;49.310;8.646;2023-09-12T06:03:00;21.63;;;10.23;;
8596;SDS011;4336;49.310;8.646;2023-09-12T06:05:26;17.43;;;9.93;;
8596;SDS011;4336;49.310;8.646;2023-09-12T06:07:52;16.03;;;10.90;;
8596;SDS011;4336;49.310;8.646;2023-09-12T06:10:18;17.27;;;10.57;;
8596;SDS011;4336;49.310;8.646;2023-09-12T06:12:44;17.33;;;10.40;;
8596;SDS011;4336;49.310;8.646;2023-09-12T06:15:10;21.40;;;10.43;;
8596;SDS011;4336;49.310;8.646;2023-09-12T06:17:35;30.30;;;9.67;;
8596;SDS011;4336;49.310;8.646;2023-09-12T06:20:01;19.53;;;10.10;;
8596;SDS011;4336;49.310;8.646;2023-09-12T06:22:28;17.50;;;9.77;;
8596;SDS011;4336;49.310;8.646;2023-09-12T06:24:54;22.80;;;9.67;;
8596;SDS011;4336;49.310;8.646;2023-09-12T06:27:20;21.80;;;10.57;;
8596;SDS011;4336;49.310;8.646;2023-09-12T06:29:46;21.07;;;10.43;;
8596;SDS011;4336;49.310;8.646;2023-09-12T06:32:14;22.57;;;9.80;;
8596;SDS011;4336;49.310;8.646;2023-09-12T06:34:40;16.30;;;10.23;;
8596;SDS011;4336;49.310;8.646;2023-09-12T06:37:07;18.37;;;10.27;;
8596;SDS011;4336;49.310;8.646;2023-09-12T06:39:33;23.27;;;10.30;;
8596;SDS011;4336;49.310;8.646;2023-09-12T06:41:58;19.67;;;8.70;;
8596;SDS011;4336;49.310;8.646;2023-09-12T06:44:24;24.23;;;10.37;;
8596;SDS011;4336;49.310;8.646;2023-09-12T06:46:50;22.63;;;10.20;;
8596;SDS011;4336;49.310;8.646;2023-09-12T06:49:16;19.83;;;9.70;;
8596;SDS011;4336;49.310;8.646;2023-09-12T06:51:41;23.33;;;9.90;;
8596;SDS011;4336;49.310;8.646;2023-09-12T06:54:07;21.37;;;10.10;;
8596;SDS011;4336;49.310;8.646;2023-09-12T06:56:33;18.30;;;9.37;;
8596;SDS011;4336;49.310;8.646;2023-09-12T06:59:03;17.37;;;10.07;;
8596;SDS011;4336;49.310;8.646;2023-09-12T07:01:32;17.10;;;9.77;;
8596;SDS011;4336;49.310;8.646;2023-09-12T07:03:58;17.40;;;9.75;;
8596;SDS011;4336;49.310;8.646;2023-09-12T07:06:23;18.93;;;8.37;;
8596;SDS011;4336;49.310;8.646;2023-09-12T07:08:49;26.05;;;9.88;;
8596;SDS011;4336;49.310;8.646;2023-09-12T07:11:16;24.88;;;10.43;;
8596;SDS011;4336;49.310;8.646;2023-09-12T07:13:42;24.95;;;9.85;;
8596;SDS011;4336;49.310;8.646;2023-09-12T07:16:08;22.60;;;9.35;;
8596;SDS011;4336;49.310;8.646;2023-09-12T07:18:33;24.25;;;9.68;;
8596;SDS011;4336;49.310;8.646;2023-09-12T07:21:00;15.88;;;9.02;;
8596;SDS011;4336;49.310;8.646;2023-09-12T07:23:26;26.30;;;10.32;;
8596;SDS011;4336;49.310;8.646;2023-09-12T07:25:54;26.90;;;10.35;;
8596;SDS011;4336;49.310;8.646;2023-09-12T07:28:22;19.05;;;9.30;;
8596;SDS011;4336;49.310;8.646;2023-09-12T07:30:48;17.58;;;8.35;;
8596;SDS011;4336;49.310;8.646;2023-09-12T07:33:14;16.02;;;8.68;;
8596;SDS011;4336;49.310;8.646;2023-09-12T07:35:40;22.05;;;10.27;;
8596;SDS011;4336;49.310;8.646;2023-09-12T07:38:06;18.75;;;10.45;;
8596;SDS011;4336;49.310;8.646;2023-09-12T07:40:32;18.20;;;9.65;;
8596;SDS011;4336;49.310;8.646;2023-09-12T07:42:57;18.90;;;9.88;;
8596;SDS011;4336;49.310;8.646;2023-09-12T07:45:23;24.45;;;9.77;;
8596;SDS011;4336;49.310;8.646;2023-09-12T07:47:49;22.10;;;9.65;;
8596;SDS011;4336;49.310;8.646;2023-09-12T07:50:15;16.45;;;9.93;;
8596;SDS011;4336;49.310;8.646;2023-09-12T07:52:41;24.02;;;10.73;;
8596;SDS011;4336;49.310;8.646;2023-09-12T07:55:06;19.17;;;10.23;;
8596;SDS011;4336;49.310;8.646;2023-09-12T07:57:33;20.02;;;10.65;;
8596;SDS011;4336;49.310;8.646;2023-09-12T08:00:00;20.08;;;10.13;;
8596;SDS011;4336;49.310;8.646;2023-09-12T08:02:26;20.58;;;10.48;;
8596;SDS011;4336;49.310;8.646;2023-09-12T08:04:52;19.17;;;10.05;;
8596;SDS011;4336;49.310;8.646;2023-09-12T08:07:20;14.77;;;9.85;;
8596;SDS011;4336;49.310;8.646;2023-09-12T08:09:53;15.27;;;10.60;;
8596;SDS011;4336;49.310;8.646;2023-09-12T08:12:23;20.27;;;8.85;;
8596;SDS011;4336;49.310;8.646;2023-09-12T08:14:51;17.33;;;10.38;;
8596;SDS011;4336;49.310;8.646;2023-09-12T08:17:17;20.83;;;10.68;;
8596;SDS011;4336;49.310;8.646;2023-09-12T08:19:43;19.73;;;9.85;;
8596;SDS011;4336;49.310;8.646;2023-09-12T08:22:09;17.30;;;10.55;;
8596;SDS011;4336;49.310;8.646;2023-09-12T08:24:35;20.88;;;10.57;;
8596;SDS011;4336;49.310;8.646;2023-09-12T08:27:03;17.35;;;9.95;;
8596;SDS011;4336;49.310;8.646;2023-09-12T08:29:29;17.33;;;9.60;;
8596;SDS011;4336;49.310;8.646;2023-09-12T08:31:55;17.05;;;10.10;;
8596;SDS011;4336;49.310;8.646;2023-09-12T08:34:21;21.60;;;10.68;;
8596;SDS011;4336;49.310;8.646;2023-09-12T08:36:47;16.42;;;9.55;;
8596;SDS011;4336;49.310;8.646;2023-09-12T08:39:15;15.02;;;9.80;;
8596;SDS011;4336;49.310;8.646;2023-09-12T08:41:44;19.20;;;10.40;;
8596;SDS011;4336;49.310;8.646;2023-09-12T08:44:11;17.02;;;10.32;;
8596;SDS011;4336;49.310;8.646;2023-09-12T08:46:37;26.45;;;10.35;;
8596;SDS011;4336;49.310;8.646;2023-09-12T08:49:05;18.75;;;10.90;;
8596;SDS011;4336;49.310;8.646;2023-09-12T08:51:31;18.20;;;10.75;;
8596;SDS011;4336;49.310;8.646;2023-09-12T08:53:57;18.73;;;9.63;;
8596;SDS011;4336;49.310;8.646;2023-09-12T08:56:24;19.83;;;10.30;;
8596;SDS011;4336;49.310;8.646;2023-09-12T08:58:50;19.33;;;10.40;;
8596;SDS011;4336;49.310;8.646;2023-09-12T09:01:16;19.95;;;10.07;;
8596;SDS011;4336;49.310;8.646;2023-09-12T09:03:43;17.15;;;9.63;;
8596;SDS011;4336;49.310;8.646;2023-09-12T09:06:10;15.88;;;9.82;;
8596;SDS011;4336;49.310;8.646;2023-09-12T09:08:37;13.40;;;8.48;;
8596;SDS011;4336;49.310;8.646;2023-09-12T09:11:03;11.93;;;9.35;;
8596;SDS011;4336;49.310;8.646;2023-09-12T09:13:31;15.48;;;9.85;;
8596;SDS011;4336;49.310;8.646;2023-09-12T09:16:13;14.88;;;9.80;;
8596;SDS011;4336;49.310;8.646;2023-09-12T09:18:49;14.73;;;9.52;;
8596;SDS011;4336;49.310;8.646;2023-09-12T09:21:19;12.20;;;8.73;;
8596;SDS011;4336;49.310;8.646;2023-09-12T09:23:46;13.88;;;8.68;;
8596;SDS011;4336;49.310;8.646;2023-09-12T09:26:12;15.68;;;10.02;;
8596;SDS011;4336;49.310;8.646;2023-09-12T09:28:38;15.23;;;10.43;;
8596;SDS011;4336;49.310;8.646;2023-09-12T09:31:09;14.30;;;9.52;;
8596;SDS011;4336;49.310;8.646;2023-09-12T09:33:36;20.27;;;10.18;;
8596;SDS011;4336;49.310;8.646;2023-09-12T09:36:03;16.73;;;10.05;;
8596;SDS011;4336;49.310;8.646;2023-09-12T09:38:30;14.02;;;9.20;;
8596;SDS011;4336;49.310;8.646;2023-09-12T09:40:55;31.65;;;9.27;;
8596;SDS011;4336;49.310;8.646;2023-09-12T09:43:22;16.40;;;9.02;;
8596;SDS011;4336;49.310;8.646;2023-09-12T09:45:48;15.45;;;9.45;;
8596;SDS011;4336;49.310;8.646;2023-09-12T09:48:18;17.90;;;10.02;;
8596;SDS011;4336;49.310;8.646;2023-09-12T09:50:48;16.73;;;9.55;;
8596;SDS011;4336;49.310;8.646;2023-09-12T09:53:14;14.48;;;10.95;;
8596;SDS011;4336;49.310;8.646;2023-09-12T09:55:40;19.17;;;9.65;;
8596;SDS011;4336;49.310;8.646;2023-09-12T09:58:07;21.02;;;10.15;;
8596;SDS011;4336;49.310;8.646;2023-09-12T10:00:34;19.05;;;10.32;;
8596;SDS011;4336;49.310;8.646;2023-09-12T10:03:05;22.75;;;9.65;;
8596;SDS011;4336;49.310;8.646;2023-09-12T10:05:32;16.02;;;9.57;;
8596;SDS011;4336;49.310;8.646;2023-09-12T10:07:58;16.70;;;9.43;;
8596;SDS011;4336;49.310;8.646;2023-09-12T10:10:25;12.65;;;7.15;;
8596;SDS011;4336;49.310;8.646;2023-09-12T10:12:53;13.23;;;8.90;;
8596;SDS011;4336;49.310;8.646;2023-09-12T10:15:23;14.98;;;8.55;;
8596;SDS011;4336;49.310;8.646;2023-09-12T10:17:57;12.77;;;8.82;;
8596;SDS011;4336;49.310;8.646;2023-09-12T10:20:25;15.07;;;9.82;;
8596;SDS011;4336;49.310;8.646;2023-09-12T10:29:13;15.80;;;9.05;;
8596;SDS011;4336;49.310;8.646;2023-09-12T10:31:40;13.18;;;8.30;;
8596;SDS011;4336;49.310;8.646;2023-09-12T10:34:07;16.60;;;9.68;;
8596;SDS011;4336;49.310;8.646;2023-09-12T10:36:36;16.30;;;9.07;;
8596;SDS011;4336;49.310;8.646;2023-09-12T10:39:04;17.58;;;9.85;;
8596;SDS011;4336;49.310;8.646;2023-09-12T10:41:30;14.85;;;8.52;;
8596;SDS011;4336;49.310;8.646;2023-09-12T10:43:56;11.35;;;8.90;;
8596;SDS011;4336;49.310;8.646;2023-09-12T10:46:23;13.05;;;9.43;;
8596;SDS011;4336;49.310;8.646;2023-09-12T10:48:49;15.05;;;8.95;;
8596;SDS011;4336;49.310;8.646;2023-09-12T10:51:16;9.88;;;8.52;;
8596;SDS011;4336;49.310;8.646;2023-09-12T10:53:46;11.98;;;8.90;;
8596;SDS011;4336;49.310;8.646;2023-09-12T10:56:18;10.88;;;8.02;;
8596;SDS011;4336;49.310;8.646;2023-09-12T11:01:35;20.00;;;9.35;;
8596;SDS011;4336;49.310;8.646;2023-09-12T11:04:44;17.52;;;7.93;;
8596;SDS011;4336;49.310;8.646;2023-09-12T11:06:53;18.23;;;8.10;;
8596;SDS011;4336;49.310;8.646;2023-09-12T11:09:23;19.17;;;7.82;;
8596;SDS011;4336;49.310;8.646;2023-09-12T11:12:02;11.82;;;8.38;;
8596;SDS011;4336;49.310;8.646;2023-09-12T11:14:30;12.98;;;8.07;;
8596;SDS011;4336;49.310;8.646;2023-09-12T11:19:43;16.05;;;8.45;;
8596;SDS011;4336;49.310;8.646;2023-09-12T11:22:23;27.00;;;9.43;;
8596;SDS011;4336;49.310;8.646;2023-09-12T11:30:18;17.08;;;8.52;;
8596;SDS011;4336;49.310;8.646;2023-09-12T11:32:49;10.82;;;7.07;;
8596;SDS011;4336;49.310;8.646;2023-09-12T11:35:16;9.00;;;6.78;;
8596;SDS011;4336;49.310;8.646;2023-09-12T11:38:01;18.63;;;8.90;;
8596;SDS011;4336;49.310;8.646;2023-09-12T11:43:00;12.50;;;7.05;;
8596;SDS011;4336;49.310;8.646;2023-09-12T11:45:26;14.02;;;9.07;;
8596;SDS011;4336;49.310;8.646;2023-09-12T11:47:53;21.35;;;9.25;;
8596;SDS011;4336;49.310;8.646;2023-09-12T11:50:26;13.98;;;8.52;;
8596;SDS011;4336;49.310;8.646;2023-09-12T11:53:02;13.52;;;8.48;;
8596;SDS011;4336;49.310;8.646;2023-09-12T11:55:33;13.05;;;8.48;;
8596;SDS011;4336;49.310;8.646;2023-09-12T11:58:01;19.95;;;8.95;;
8596;SDS011;4336;49.310;8.646;2023-09-12T12:00:28;13.20;;;9.30;;
8596;SDS011;4336;49.310;8.646;2023-09-12T12:02:54;12.93;;;7.93;;
8596;SDS011;4336;49.310;8.646;2023-09-12T12:05:21;13.23;;;7.00;;
8596;SDS011;4336;49.310;8.646;2023-09-12T12:07:48;11.02;;;7.80;;
8596;SDS011;4336;49.310;8.646;2023-09-12T12:10:14;17.63;;;9.00;;
8596;SDS011;4336;49.310;8.646;2023-09-12T12:12:42;15.38;;;8.27;;
8596;SDS011;4336;49.310;8.646;2023-09-12T12:15:11;17.13;;;7.50;;
8596;SDS011;4336;49.310;8.646;2023-09-12T12:17:37;12.68;;;8.55;;
8596;SDS011;4336;49.310;8.646;2023-09-12T12:20:06;13.00;;;7.80;;
8596;SDS011;4336;49.310;8.646;2023-09-12T12:22:36;28.92;;;9.18;;
8596;SDS011;4336;49.310;8.646;2023-09-12T12:25:08;14.35;;;8.82;;
8596;SDS011;4336;49.310;8.646;2023-09-12T12:27:38;16.38;;;8.38;;
8596;SDS011;4336;49.310;8.646;2023-09-12T12:30:09;12.75;;;8.23;;
8596;SDS011;4336;49.310;8.646;2023-09-12T12:32:43;14.40;;;9.02;;
8596;SDS011;4336;49.310;8.646;2023-09-12T12:35:18;17.15;;;8.07;;
8596;SDS011;4336;49.310;8.646;2023-09-12T12:37:45;15.80;;;8.68;;
8596;SDS011;4336;49.310;8.646;2023-09-12T12:40:14;12.57;;;8.73;;
8596;SDS011;4336;49.310;8.646;2023-09-12T12:42:40;16.50;;;8.57;;
8596;SDS011;4336;49.310;8.646;2023-09-12T12:45:15;9.82;;;7.82;;
8596;SDS011;4336;49.310;8.646;2023-09-12T12:47:54;10.55;;;8.32;;
8596;SDS011;4336;49.310;8.646;2023-09-12T12:50:23;14.43;;;7.85;;
8596;SDS011;4336;49.310;8.646;2023-09-12T12:52:48;12.80;;;8.57;;
8596;SDS011;4336;49.310;8.646;2023-09-12T12:55:15;16.92;;;7.70;;
8596;SDS011;4336;49.310;8.646;2023-09-12T12:57:42;13.85;;;7.85;;
8596;SDS011;4336;49.310;8.646;2023-09-12T13:00:12;17.77;;;7.70;;
8596;SDS011;4336;49.310;8.646;2023-09-12T13:02:43;7.72;;;6.93;;
8596;SDS011;4336;49.310;8.646;2023-09-12T13:05:20;13.57;;;7.25;;
8596;SDS011;4336;49.310;8.646;2023-09-12T13:07:52;11.60;;;7.75;;
8596;SDS011;4336;49.310;8.646;2023-09-12T13:10:19;10.25;;;6.45;;
8596;SDS011;4336;49.310;8.646;2023-09-12T13:12:45;11.95;;;7.05;;
8596;SDS011;4336;49.310;8.646;2023-09-12T13:15:14;11.27;;;6.85;;
8596;SDS011;4336;49.310;8.646;2023-09-12T13:17:41;13.77;;;6.70;;
8596;SDS011;4336;49.310;8.646;2023-09-12T13:20:07;13.13;;;7.60;;
8596;SDS011;4336;49.310;8.646;2023-09-12T13:22:34;11.60;;;7.63;;
8596;SDS011;4336;49.310;8.646;2023-09-12T13:25:00;13.25;;;7.97;;
8596;SDS011;4336;49.310;8.646;2023-09-12T13:27:26;9.93;;;7.63;;
8596;SDS011;4336;49.310;8.646;2023-09-12T13:29:51;19.23;;;7.85;;
8596;SDS011;4336;49.310;8.646;2023-09-12T13:32:17;12.88;;;7.95;;
8596;SDS011;4336;49.310;8.646;2023-09-12T13:34:44;15.75;;;8.88;;
8596;SDS011;4336;49.310;8.646;2023-09-12T13:37:10;17.35;;;8.63;;
8596;SDS011;4336;49.310;8.646;2023-09-12T13:39:36;14.23;;;8.23;;
8596;SDS011;4336;49.310;8.646;2023-09-12T13:42:01;10.32;;;6.45;;
8596;SDS011;4336;49.310;8.646;2023-09-12T13:44:29;11.52;;;5.80;;
8596;SDS011;4336;49.310;8.646;2023-09-12T13:46:55;10.38;;;7.05;;
8596;SDS011;4336;49.310;8.646;2023-09-12T13:49:21;15.20;;;7.78;;
8596;SDS011;4336;49.310;8.646;2023-09-12T13:51:46;14.25;;;7.68;;
8596;SDS011;4336;49.310;8.646;2023-09-12T13:54:12;9.23;;;6.28;;
8596;SDS011;4336;49.310;8.646;2023-09-12T13:56:48;14.00;;;8.40;;
8596;SDS011;4336;49.310;8.646;2023-09-12T13:59:14;9.77;;;7.78;;
8596;SDS011;4336;49.310;8.646;2023-09-12T14:01:41;9.18;;;8.20;;
8596;SDS011;4336;49.310;8.646;2023-09-12T14:04:06;19.90;;;9.20;;
8596;SDS011;4336;49.310;8.646;2023-09-12T14:06:32;8.15;;;6.88;;
8596;SDS011;4336;49.310;8.646;2023-09-12T14:08:59;8.73;;;7.65;;
8596;SDS011;4336;49.310;8.646;2023-09-12T14:11:25;11.43;;;7.72;;
8596;SDS011;4336;49.310;8.646;2023-09-12T14:13:51;8.90;;;7.47;;
8596;SDS011;4336;49.310;8.646;2023-09-12T14:16:16;8.82;;;7.68;;
8596;SDS011;4336;49.310;8.646;2023-09-12T14:18:42;10.88;;;6.82;;
8596;SDS011;4336;49.310;8.646;2023-09-12T14:21:08;12.07;;;7.40;;
8596;SDS011;4336;49.310;8.646;2023-09-12T14:23:34;11.52;;;7.60;;
8596;SDS011;4336;49.310;8.646;2023-09-12T14:25:59;14.52;;;7.82;;
8596;SDS011;4336;49.310;8.646;2023-09-12T14:28:25;8.95;;;7.88;;
8596;SDS011;4336;49.310;8.646;2023-09-12T14:30:53;10.15;;;7.90;;
8596;SDS011;4336;49.310;8.646;2023-09-12T14:33:19;12.23;;;8.65;;
8596;SDS011;4336;49.310;8.646;2023-09-12T14:35:45;24.50;;;8.43;;
8596;SDS011;4336;49.310;8.646;2023-09-12T14:38:12;14.18;;;8.23;;
8596;SDS011;4336;49.310;8.646;2023-09-12T14:40:37;15.23;;;7.97;;
8596;SDS011;4336;49.310;8.646;2023-09-12T14:43:05;12.18;;;6.38;;
8596;SDS011;4336;49.310;8.646;2023-09-12T14:45:33;6.43;;;5.50;;
8596;SDS011;4336;49.310;8.646;2023-09-12T14:47:59;13.23;;;8.27;;
8596;SDS011;4336;49.310;8.646;2023-09-12T14:50:24;15.60;;;6.18;;
8596;SDS011;4336;49.310;8.646;2023-09-12T14:52:54;10.15;;;8.25;;
8596;SDS011;4336;49.310;8.646;2023-09-12T14:55:20;10.77;;;7.32;;
8596;SDS011;4336;49.310;8.646;2023-09-12T14:57:47;15.00;;;7.57;;
8596;SDS011;4336;49.310;8.646;2023-09-12T15:00:14;12.43;;;6.30;;
8596;SDS011;4336;49.310;8.646;2023-09-12T15:02:39;11.63;;;7.68;;
8596;SDS011;4336;49.310;8.646;2023-09-12T15:05:07;7.50;;;6.13;;
8596;SDS011;4336;49.310;8.646;2023-09-12T15:07:33;14.63;;;8.98;;
8596;SDS011;4336;49.310;8.646;2023-09-12T15:09:59;14.63;;;8.25;;
8596;SDS011;4336;49.310;8.646;2023-09-12T15:12:25;12.23;;;8.73;;
8596;SDS011;4336;49.310;8.646;2023-09-12T15:14:51;12.27;;;7.88;;
8596;SDS011;4336;49.310;8.646;2023-09-12T15:17:20;7.95;;;5.93;;
8596;SDS011;4336;49.310;8.646;2023-09-12T15:19:45;9.30;;;7.50;;